Time;durP1;ratioP1;P1;durP2;ratioP2;P2;SDS_P1;SDS_P2;PMS_P1;PMS_P2;Temp;Humidity;BMP_temperature;BMP_pressure;BME280_temperature;BME280_humidity;BME280_pressure;Samples;Min_cycle;Max_cycle;Signal;HPM_P1;HPM_P2
2021/08/26 00:06:55;;;;;;;6.05;2.05;;;;;;;;;;5112107;28;20112;-67
2021/08/26 00:09:22;;;;;;;10.00;2.17;;;;;;;;;;5093810;28;20027;-65
2021/08/26 00:11:48;;;;;;;8.75;2.47;;;;;;;;;;5112162;28;20019;-66
2021/08/26 00:14:15;;;;;;;8.43;1.73;;;;;;;;;;5111245;28;20497;-65
2021/08/26 00:16:42;;;;;;;9.50;2.38;;;;;;;;;;5092795;28;20073;-65
2021/08/26 00:19:08;;;;;;;6.55;2.05;;;;;;;;;;5110891;28;20095;-66
2021/08/26 00:21:34;;;;;;;5.18;2.03;;;;;;;;;;5093997;28;20077;-66
2021/08/26 00:24:00;;;;;;;6.03;1.65;;;;;;;;;;5110770;28;20043;-66
2021/08/26 00:26:26;;;;;;;6.32;2.22;;;;;;;;;;5111327;28;20089;-65
2021/08/26 00:28:52;;;;;;;4.95;2.00;;;;;;;;;;5112478;28;20114;-66
2021/08/26 00:31:18;;;;;;;8.55;2.35;;;;;;;;;;5092671;28;20051;-65
2021/08/26 00:33:44;;;;;;;11.85;3.08;;;;;;;;;;5109900;28;20032;-66
2021/08/26 00:36:10;;;;;;;8.48;3.45;;;;;;;;;;5111615;28;20043;-65
2021/08/26 00:38:36;;;;;;;9.85;3.05;;;;;;;;;;5112167;28;20035;-65
2021/08/26 00:41:03;;;;;;;11.38;2.42;;;;;;;;;;5110927;28;20500;-66
2021/08/26 00:43:30;;;;;;;6.63;2.63;;;;;;;;;;5088195;28;20047;-66
2021/08/26 00:45:58;;;;;;;9.65;2.55;;;;;;;;;;5109057;28;20055;-66
2021/08/26 00:48:24;;;;;;;8.00;2.70;;;;;;;;;;5084999;28;20043;-65
2021/08/26 00:50:51;;;;;;;7.72;2.90;;;;;;;;;;5110959;28;20169;-66
2021/08/26 00:53:17;;;;;;;8.38;2.70;;;;;;;;;;5109980;28;20028;-66
2021/08/26 00:55:43;;;;;;;7.78;3.17;;;;;;;;;;5110880;28;20038;-67
2021/08/26 00:58:09;;;;;;;8.05;3.10;;;;;;;;;;5109047;28;20605;-66
2021/08/26 01:00:35;;;;;;;9.77;3.55;;;;;;;;;;5107885;28;20119;-66
2021/08/26 01:03:08;;;;;;;10.07;3.08;;;;;;;;;;5088231;28;20063;-67
2021/08/26 01:05:34;;;;;;;9.98;3.28;;;;;;;;;;5110379;28;20100;-67
2021/08/26 01:08:00;;;;;;;9.52;3.28;;;;;;;;;;5111247;28;20496;-66
2021/08/26 01:10:26;;;;;;;7.13;3.33;;;;;;;;;;5108809;28;20019;-67
2021/08/26 01:12:55;;;;;;;8.73;2.65;;;;;;;;;;5107391;28;20480;-66
2021/08/26 01:15:21;;;;;;;8.50;2.83;;;;;;;;;;5107772;28;20485;-65
2021/08/26 01:17:47;;;;;;;7.95;2.75;;;;;;;;;;5108936;28;20023;-65
2021/08/26 01:20:14;;;;;;;9.40;3.22;;;;;;;;;;5108731;28;20031;-66
2021/08/26 01:22:41;;;;;;;9.23;3.60;;;;;;;;;;5107674;28;20408;-65
2021/08/26 01:25:12;;;;;;;8.90;3.95;;;;;;;;;;5088122;28;20515;-66
2021/08/26 01:27:44;;;;;;;9.07;3.38;;;;;;;;;;5089423;28;20019;-66
2021/08/26 01:30:13;;;;;;;10.35;2.92;;;;;;;;;;5106850;28;20027;-66
2021/08/26 01:32:40;;;;;;;11.25;3.60;;;;;;;;;;5107731;28;20059;-66
2021/08/26 01:35:06;;;;;;;13.32;3.95;;;;;;;;;;5108535;28;20023;-66
2021/08/26 01:37:32;;;;;;;6.07;2.65;;;;;;;;;;5089384;28;20032;-66
2021/08/26 01:39:58;;;;;;;11.18;2.80;;;;;;;;;;5108098;28;20098;-66
2021/08/26 01:42:28;;;;;;;18.55;3.60;;;;;;;;;;5106685;28;20024;-67
2021/08/26 01:44:55;;;;;;;11.00;4.00;;;;;;;;;;5107764;28;20027;-66
2021/08/26 01:47:22;;;;;;;16.98;5.65;;;;;;;;;;5107608;28;20024;-64
2021/08/26 01:49:48;;;;;;;12.45;4.47;;;;;;;;;;5108088;28;20039;-65
2021/08/26 01:52:24;;;;;;;14.05;4.25;;;;;;;;;;5105971;28;20027;-66
2021/08/26 01:54:54;;;;;;;13.50;4.35;;;;;;;;;;5107539;28;20028;-65
2021/08/26 01:57:24;;;;;;;14.48;4.00;;;;;;;;;;5106031;28;20042;-65
2021/08/26 01:59:50;;;;;;;13.18;4.15;;;;;;;;;;5108041;28;20026;-65
2021/08/26 02:02:16;;;;;;;16.85;4.78;;;;;;;;;;5087558;28;20058;-65
2021/08/26 02:04:42;;;;;;;21.73;5.85;;;;;;;;;;5103773;28;20069;-65
2021/08/26 02:07:09;;;;;;;17.60;4.65;;;;;;;;;;5114685;28;20034;-65
2021/08/26 02:09:35;;;;;;;9.63;3.30;;;;;;;;;;5112963;28;20023;-65
2021/08/26 02:12:01;;;;;;;17.83;3.45;;;;;;;;;;5111784;28;20073;-65
2021/08/26 02:14:27;;;;;;;14.25;3.60;;;;;;;;;;5111467;28;20035;-65
2021/08/26 02:16:53;;;;;;;17.67;4.35;;;;;;;;;;5112400;28;20023;-65
2021/08/26 02:19:19;;;;;;;10.85;3.70;;;;;;;;;;5111942;28;20020;-65
2021/08/26 02:21:45;;;;;;;19.50;3.92;;;;;;;;;;5111932;28;20026;-65
2021/08/26 02:24:11;;;;;;;13.57;3.60;;;;;;;;;;5110798;28;20024;-65
2021/08/26 02:26:37;;;;;;;17.20;4.18;;;;;;;;;;5111630;28;20381;-65
2021/08/26 02:29:04;;;;;;;16.92;5.20;;;;;;;;;;5111775;28;20066;-66
2021/08/26 02:31:30;;;;;;;20.88;6.18;;;;;;;;;;5111302;28;20023;-66
2021/08/26 02:33:56;;;;;;;27.73;6.18;;;;;;;;;;5108404;28;20016;-66
2021/08/26 02:36:22;;;;;;;19.17;4.93;;;;;;;;;;5111851;28;20034;-65
2021/08/26 02:38:49;;;;;;;21.70;4.97;;;;;;;;;;5114086;28;20015;-65
2021/08/26 02:41:15;;;;;;;21.60;5.80;;;;;;;;;;5112979;28;20024;-65
2021/08/26 02:43:41;;;;;;;31.85;5.85;;;;;;;;;;5092899;28;20051;-65
2021/08/26 02:46:07;;;;;;;25.48;5.40;;;;;;;;;;5095370;28;20126;-66
2021/08/26 02:48:33;;;;;;;19.38;5.10;;;;;;;;;;5113448;28;20035;-65
2021/08/26 02:50:59;;;;;;;23.58;5.75;;;;;;;;;;5113275;28;20039;-65
2021/08/26 02:53:26;;;;;;;16.42;5.78;;;;;;;;;;5094686;28;20024;-65
2021/08/26 02:55:52;;;;;;;19.17;4.75;;;;;;;;;;5113615;27;20019;-64
2021/08/26 02:58:18;;;;;;;16.83;4.55;;;;;;;;;;5093916;28;20024;-65
2021/08/26 03:00:44;;;;;;;22.27;4.90;;;;;;;;;;5102389;28;20157;-65
2021/08/26 03:03:10;;;;;;;23.15;4.85;;;;;;;;;;5112339;28;20073;-66
2021/08/26 03:05:36;;;;;;;22.55;5.88;;;;;;;;;;5092748;28;20030;-66
2021/08/26 03:08:02;;;;;;;25.50;6.03;;;;;;;;;;5086419;28;20030;-64
2021/08/26 03:10:29;;;;;;;21.45;7.55;;;;;;;;;;5112249;28;20405;-65
2021/08/26 03:12:56;;;;;;;21.05;5.97;;;;;;;;;;5112356;28;20037;-64
2021/08/26 03:15:22;;;;;;;30.50;6.43;;;;;;;;;;5112408;28;20030;-64
2021/08/26 03:17:48;;;;;;;21.30;5.28;;;;;;;;;;5092235;28;20040;-65
2021/08/26 03:20:14;;;;;;;20.85;5.80;;;;;;;;;;5112692;28;20024;-65
2021/08/26 03:22:41;;;;;;;19.15;5.20;;;;;;;;;;5112758;28;20111;-65
2021/08/26 03:25:07;;;;;;;22.08;5.10;;;;;;;;;;5113703;28;20020;-66
2021/08/26 03:27:33;;;;;;;22.17;4.30;;;;;;;;;;5112464;28;20039;-65
2021/08/26 03:30:00;;;;;;;21.88;4.78;;;;;;;;;;5095282;28;20047;-65
2021/08/26 03:32:26;;;;;;;16.63;5.28;;;;;;;;;;5111377;28;20039;-66
2021/08/26 03:34:52;;;;;;;23.23;6.72;;;;;;;;;;5112620;28;20027;-65
2021/08/26 03:37:18;;;;;;;16.70;4.45;;;;;;;;;;5113315;28;20027;-66
2021/08/26 03:39:44;;;;;;;23.85;5.78;;;;;;;;;;5109521;28;20043;-66
2021/08/26 03:42:10;;;;;;;16.67;4.72;;;;;;;;;;5112917;28;20036;-64
2021/08/26 03:44:36;;;;;;;27.65;6.50;;;;;;;;;;5112197;28;20032;-64
2021/08/26 03:47:02;;;;;;;18.88;4.28;;;;;;;;;;5111664;28;20024;-65
2021/08/26 03:49:29;;;;;;;20.60;5.68;;;;;;;;;;5106330;28;20116;-65
2021/08/26 03:51:55;;;;;;;19.40;5.80;;;;;;;;;;5112499;28;20397;-66
2021/08/26 03:54:22;;;;;;;22.38;5.75;;;;;;;;;;5111254;28;20097;-66
2021/08/26 03:56:48;;;;;;;17.58;5.50;;;;;;;;;;5112776;28;20540;-65
2021/08/26 03:59:14;;;;;;;25.67;7.38;;;;;;;;;;5109998;28;20080;-65
2021/08/26 04:01:40;;;;;;;19.70;6.75;;;;;;;;;;5107498;28;20498;-65
2021/08/26 04:04:06;;;;;;;21.52;6.28;;;;;;;;;;5110486;28;20102;-65
2021/08/26 04:06:32;;;;;;;20.45;5.80;;;;;;;;;;5112073;28;20024;-64
2021/08/26 04:08:58;;;;;;;30.23;8.73;;;;;;;;;;5109544;28;20036;-65
2021/08/26 04:11:24;;;;;;;24.90;6.57;;;;;;;;;;5109373;28;20028;-65
2021/08/26 04:13:50;;;;;;;33.72;6.82;;;;;;;;;;5110533;28;20027;-64
2021/08/26 04:16:17;;;;;;;36.72;7.68;;;;;;;;;;5111502;28;20024;-65
2021/08/26 04:18:43;;;;;;;27.75;6.65;;;;;;;;;;5092966;28;20106;-65
2021/08/26 04:21:10;;;;;;;28.10;6.65;;;;;;;;;;5112282;28;20035;-64
2021/08/26 04:23:36;;;;;;;30.25;7.03;;;;;;;;;;5111241;28;20027;-65
2021/08/26 04:26:02;;;;;;;21.88;5.85;;;;;;;;;;5111847;28;20042;-65
2021/08/26 04:28:28;;;;;;;27.17;6.97;;;;;;;;;;5092205;28;20027;-65
2021/08/26 04:30:54;;;;;;;31.90;7.00;;;;;;;;;;5090074;28;20103;-65
2021/08/26 04:33:20;;;;;;;31.02;7.13;;;;;;;;;;5104744;28;20039;-65
2021/08/26 04:35:46;;;;;;;31.15;7.68;;;;;;;;;;5112081;28;20016;-65
2021/08/26 04:38:12;;;;;;;26.10;5.78;;;;;;;;;;5111481;28;20036;-65
2021/08/26 04:40:39;;;;;;;15.82;4.57;;;;;;;;;;5112356;28;20035;-65
2021/08/26 04:43:05;;;;;;;29.23;6.07;;;;;;;;;;5091555;28;20570;-65
2021/08/26 04:45:31;;;;;;;18.65;4.95;;;;;;;;;;5111302;28;20614;-65
2021/08/26 04:47:57;;;;;;;19.25;4.75;;;;;;;;;;5092496;28;20023;-64
2021/08/26 04:50:23;;;;;;;17.55;5.55;;;;;;;;;;5111257;28;20059;-66
2021/08/26 04:52:50;;;;;;;22.67;5.85;;;;;;;;;;5110262;28;20035;-66
2021/08/26 04:55:16;;;;;;;23.70;5.05;;;;;;;;;;5110458;28;20024;-65
2021/08/26 04:57:42;;;;;;;18.98;4.93;;;;;;;;;;5110975;28;20685;-67
2021/08/26 05:00:08;;;;;;;17.40;4.20;;;;;;;;;;5110928;28;20024;-65
2021/08/26 05:02:34;;;;;;;15.55;4.70;;;;;;;;;;5104061;28;20059;-64
2021/08/26 05:05:00;;;;;;;18.73;4.60;;;;;;;;;;5110737;28;20040;-65
2021/08/26 05:07:26;;;;;;;18.23;4.35;;;;;;;;;;5111226;28;20027;-65
2021/08/26 05:09:52;;;;;;;15.65;4.70;;;;;;;;;;5110955;28;20624;-64
2021/08/26 05:12:18;;;;;;;18.38;4.50;;;;;;;;;;5110318;28;20035;-65
2021/08/26 05:14:44;;;;;;;21.20;4.85;;;;;;;;;;5110714;28;20073;-64
2021/08/26 05:17:10;;;;;;;17.02;5.20;;;;;;;;;;5111052;28;20027;-64
2021/08/26 05:19:36;;;;;;;26.20;5.68;;;;;;;;;;5110566;27;20033;-64
2021/08/26 05:22:03;;;;;;;27.98;4.95;;;;;;;;;;5107686;28;20031;-64
2021/08/26 05:24:29;;;;;;;22.88;6.07;;;;;;;;;;5108887;28;20065;-64
2021/08/26 05:26:55;;;;;;;21.17;4.40;;;;;;;;;;5110832;28;20032;-65
2021/08/26 05:29:21;;;;;;;29.17;5.75;;;;;;;;;;5109265;28;20683;-66
2021/08/26 05:31:48;;;;;;;25.90;6.03;;;;;;;;;;5110734;28;20046;-64
2021/08/26 05:34:14;;;;;;;20.55;5.13;;;;;;;;;;5109111;28;20493;-65
2021/08/26 05:36:40;;;;;;;18.58;5.07;;;;;;;;;;5110724;28;20107;-65
2021/08/26 05:39:06;;;;;;;28.85;7.13;;;;;;;;;;5110435;28;20092;-65
2021/08/26 05:41:32;;;;;;;25.15;5.32;;;;;;;;;;5091669;28;20062;-64
2021/08/26 05:43:58;;;;;;;20.40;4.40;;;;;;;;;;5109468;28;20019;-64
2021/08/26 05:46:24;;;;;;;18.45;4.93;;;;;;;;;;5109441;28;20081;-64
2021/08/26 05:48:50;;;;;;;21.33;4.57;;;;;;;;;;5092845;28;20047;-65
2021/08/26 05:51:16;;;;;;;23.80;5.35;;;;;;;;;;5109519;28;20027;-64
2021/08/26 05:53:42;;;;;;;17.27;3.88;;;;;;;;;;5109480;28;20031;-64
2021/08/26 05:56:08;;;;;;;16.15;4.00;;;;;;;;;;5111200;28;20034;-65
2021/08/26 05:58:35;;;;;;;17.15;4.97;;;;;;;;;;5110001;28;20034;-64
2021/08/26 06:01:01;;;;;;;18.73;4.82;;;;;;;;;;5110363;28;20036;-66
2021/08/26 06:03:27;;;;;;;15.63;3.78;;;;;;;;;;5088813;28;20061;-64
2021/08/26 06:05:53;;;;;;;16.50;4.35;;;;;;;;;;5110225;28;20077;-65
2021/08/26 06:08:19;;;;;;;16.95;4.72;;;;;;;;;;5110469;28;20076;-65
2021/08/26 06:10:45;;;;;;;19.48;4.97;;;;;;;;;;5110038;28;20034;-65
2021/08/26 06:13:11;;;;;;;17.95;5.28;;;;;;;;;;5109035;28;20031;-64
2021/08/26 06:15:37;;;;;;;21.98;4.40;;;;;;;;;;5110410;28;20049;-64
2021/08/26 06:18:03;;;;;;;19.38;3.92;;;;;;;;;;5110503;28;20031;-64
2021/08/26 06:20:29;;;;;;;24.20;4.57;;;;;;;;;;5109752;28;20050;-64
2021/08/26 06:22:55;;;;;;;13.65;3.47;;;;;;;;;;5108798;28;20043;-65
2021/08/26 06:25:21;;;;;;;14.57;3.15;;;;;;;;;;5110606;28;20032;-64
2021/08/26 06:27:47;;;;;;;15.43;3.15;;;;;;;;;;5109524;28;20032;-64
2021/08/26 06:30:13;;;;;;;15.43;4.00;;;;;;;;;;5110017;28;20035;-65
2021/08/26 06:32:40;;;;;;;17.38;3.17;;;;;;;;;;5107738;28;20023;-64
2021/08/26 06:35:06;;;;;;;12.48;3.95;;;;;;;;;;5110036;28;20497;-64
2021/08/26 06:37:33;;;;;;;12.95;2.97;;;;;;;;;;5110631;28;20133;-64
2021/08/26 06:39:59;;;;;;;11.82;3.15;;;;;;;;;;5109865;28;20034;-64
2021/08/26 06:42:26;;;;;;;11.73;3.35;;;;;;;;;;5108502;28;20020;-65
2021/08/26 06:44:52;;;;;;;14.23;3.67;;;;;;;;;;5109092;28;20023;-64
2021/08/26 06:47:19;;;;;;;17.92;4.10;;;;;;;;;;5091779;28;20034;-65
2021/08/26 06:49:45;;;;;;;14.25;3.60;;;;;;;;;;5107087;28;20096;-65
2021/08/26 06:52:11;;;;;;;19.83;4.35;;;;;;;;;;5111123;28;20485;-65
2021/08/26 06:54:37;;;;;;;11.60;3.08;;;;;;;;;;5112218;28;20477;-65
2021/08/26 06:57:05;;;;;;;15.07;4.30;;;;;;;;;;5113269;28;20023;-64
2021/08/26 06:59:31;;;;;;;18.58;4.03;;;;;;;;;;5100184;28;20020;-64
2021/08/26 07:01:57;;;;;;;19.00;3.38;;;;;;;;;;5112681;28;20036;-66
2021/08/26 07:04:23;;;;;;;11.52;2.90;;;;;;;;;;5110218;28;20023;-64
2021/08/26 07:06:55;;;;;;;9.73;3.65;;;;;;;;;;5113429;28;20509;-65
2021/08/26 07:09:22;;;;;;;15.70;5.43;;;;;;;;;;5092005;28;20031;-65
2021/08/26 07:11:48;;;;;;;16.17;4.68;;;;;;;;;;5109415;28;20123;-65
2021/08/26 07:14:14;;;;;;;17.27;3.92;;;;;;;;;;5111461;28;20642;-65
2021/08/26 07:16:40;;;;;;;12.98;3.20;;;;;;;;;;5105161;28;20024;-65
2021/08/26 07:19:06;;;;;;;19.30;3.10;;;;;;;;;;5111289;28;20031;-65
2021/08/26 07:21:32;;;;;;;16.65;4.30;;;;;;;;;;5112995;28;20021;-64
2021/08/26 07:23:58;;;;;;;19.35;4.00;;;;;;;;;;5112173;28;20024;-66
2021/08/26 07:26:24;;;;;;;15.55;3.40;;;;;;;;;;5091860;28;20110;-64
2021/08/26 07:28:54;;;;;;;19.08;3.90;;;;;;;;;;5108115;28;20027;-65
2021/08/26 07:31:21;;;;;;;17.35;3.30;;;;;;;;;;5111888;28;20058;-64
2021/08/26 07:33:47;;;;;;;16.60;3.67;;;;;;;;;;5092137;28;20008;-64
2021/08/26 07:36:13;;;;;;;19.73;3.13;;;;;;;;;;5112397;28;20451;-64
2021/08/26 07:38:39;;;;;;;11.48;2.70;;;;;;;;;;5094275;28;20028;-65
2021/08/26 07:41:05;;;;;;;12.45;3.72;;;;;;;;;;5113053;28;20136;-64
2021/08/26 07:43:33;;;;;;;13.93;3.15;;;;;;;;;;5110806;28;20027;-64
2021/08/26 07:45:59;;;;;;;9.80;2.75;;;;;;;;;;5112465;28;20036;-64
2021/08/26 07:48:25;;;;;;;17.98;3.15;;;;;;;;;;5093668;28;20507;-64
2021/08/26 07:50:53;;;;;;;14.85;3.22;;;;;;;;;;5094676;28;20032;-64
2021/08/26 07:53:19;;;;;;;12.40;2.78;;;;;;;;;;5107949;28;20050;-65
2021/08/26 07:55:46;;;;;;;9.05;2.58;;;;;;;;;;5108323;28;20115;-65
2021/08/26 07:58:12;;;;;;;9.80;2.90;;;;;;;;;;5109121;28;20110;-64
2021/08/26 08:00:38;;;;;;;11.15;2.95;;;;;;;;;;5110305;28;20028;-65
2021/08/26 08:03:04;;;;;;;11.77;2.80;;;;;;;;;;5105875;28;20441;-65
2021/08/26 08:05:31;;;;;;;16.83;2.80;;;;;;;;;;5108829;28;20073;-66
2021/08/26 08:07:57;;;;;;;13.18;3.85;;;;;;;;;;5109242;28;20031;-64
2021/08/26 08:10:23;;;;;;;15.82;3.10;;;;;;;;;;5089534;28;20146;-64
2021/08/26 08:12:50;;;;;;;16.33;3.75;;;;;;;;;;5105602;28;20039;-64
2021/08/26 08:15:16;;;;;;;16.60;4.45;;;;;;;;;;5109541;28;20028;-67
2021/08/26 08:17:42;;;;;;;13.07;2.70;;;;;;;;;;5109115;28;20027;-65
2021/08/26 08:20:09;;;;;;;19.08;3.50;;;;;;;;;;5108063;28;20801;-64
2021/08/26 08:22:35;;;;;;;17.48;4.15;;;;;;;;;;5104803;28;20019;-65
2021/08/26 08:25:02;;;;;;;17.25;3.83;;;;;;;;;;5110508;28;20481;-65
2021/08/26 08:27:28;;;;;;;17.92;3.63;;;;;;;;;;5108667;27;20027;-64
2021/08/26 08:29:54;;;;;;;15.60;3.83;;;;;;;;;;5103967;28;20062;-65
2021/08/26 08:32:20;;;;;;;19.75;4.47;;;;;;;;;;5101707;28;20050;-64
2021/08/26 08:34:46;;;;;;;16.40;4.40;;;;;;;;;;5106771;28;20038;-64
2021/08/26 08:37:12;;;;;;;11.98;3.03;;;;;;;;;;5091385;28;20020;-64
2021/08/26 08:39:38;;;;;;;13.10;3.38;;;;;;;;;;5109029;28;20598;-65
2021/08/26 08:42:04;;;;;;;20.63;4.35;;;;;;;;;;5109173;28;20055;-64
2021/08/26 08:44:30;;;;;;;15.45;4.30;;;;;;;;;;5107580;28;20028;-64
2021/08/26 08:46:58;;;;;;;18.48;3.83;;;;;;;;;;5089986;28;20493;-65
2021/08/26 08:49:24;;;;;;;17.48;3.17;;;;;;;;;;5110439;28;20100;-64
2021/08/26 08:51:51;;;;;;;11.60;3.33;;;;;;;;;;5109918;28;20031;-64
2021/08/26 08:54:17;;;;;;;16.30;4.18;;;;;;;;;;5089556;28;20039;-65
2021/08/26 08:56:44;;;;;;;15.93;3.72;;;;;;;;;;5110168;28;20059;-64
2021/08/26 08:59:10;;;;;;;24.30;4.20;;;;;;;;;;5086308;28;20038;-65
2021/08/26 09:01:36;;;;;;;13.82;3.42;;;;;;;;;;5102485;28;20016;-65
2021/08/26 09:04:02;;;;;;;21.90;4.65;;;;;;;;;;5103496;28;20024;-65
2021/08/26 09:06:41;;;;;;;15.65;2.97;;;;;;;;;;5109663;28;20032;-64
2021/08/26 09:09:08;;;;;;;15.80;3.75;;;;;;;;;;5110777;28;20047;-65
2021/08/26 09:11:34;;;;;;;16.27;2.92;;;;;;;;;;5087962;28;20016;-65
2021/08/26 09:14:10;;;;;;;16.08;3.40;;;;;;;;;;5108394;28;20047;-64
2021/08/26 09:16:37;;;;;;;19.25;3.08;;;;;;;;;;5105012;28;20007;-65
2021/08/26 09:19:19;;;;;;;25.90;3.78;;;;;;;;;;5092095;28;20431;-65
2021/08/26 09:21:45;;;;;;;20.23;4.18;;;;;;;;;;5111137;28;20122;-66
2021/08/26 09:24:11;;;;;;;16.88;3.92;;;;;;;;;;5108170;28;20034;-65
2021/08/26 09:26:40;;;;;;;9.00;2.50;;;;;;;;;;5108071;28;20038;-65
2021/08/26 09:29:08;;;;;;;16.35;3.20;;;;;;;;;;5098256;28;20031;-66
2021/08/26 09:31:34;;;;;;;21.48;3.25;;;;;;;;;;5099029;28;20032;-66
2021/08/26 09:34:05;;;;;;;10.35;2.58;;;;;;;;;;5087429;28;20023;-66
2021/08/26 09:36:37;;;;;;;17.75;3.45;;;;;;;;;;5092505;28;20050;-65
2021/08/26 09:39:08;;;;;;;13.85;3.45;;;;;;;;;;5102402;28;20039;-65
2021/08/26 09:41:35;;;;;;;13.82;2.65;;;;;;;;;;5110627;28;20501;-65
2021/08/26 09:44:02;;;;;;;14.07;2.58;;;;;;;;;;5095586;28;20023;-65
2021/08/26 09:46:29;;;;;;;9.63;2.30;;;;;;;;;;5110810;28;20034;-65
2021/08/26 09:49:06;;;;;;;9.65;2.28;;;;;;;;;;5109924;28;20078;-65
2021/08/26 09:51:32;;;;;;;9.20;1.75;;;;;;;;;;5098357;28;20030;-64
2021/08/26 09:53:58;;;;;;;11.65;2.95;;;;;;;;;;5106380;28;20035;-64
2021/08/26 09:56:24;;;;;;;6.20;1.58;;;;;;;;;;5109982;28;20040;-65
2021/08/26 09:58:54;;;;;;;6.35;1.90;;;;;;;;;;5109698;28;20035;-65
2021/08/26 10:01:21;;;;;;;14.10;2.20;;;;;;;;;;5089511;28;20436;-65
2021/08/26 10:03:48;;;;;;;8.52;2.17;;;;;;;;;;5086771;28;20443;-65
2021/08/26 10:06:15;;;;;;;7.93;2.08;;;;;;;;;;5110412;28;20055;-65
2021/08/26 10:08:42;;;;;;;7.68;2.28;;;;;;;;;;5091756;28;20028;-66
2021/08/26 10:11:09;;;;;;;10.63;1.80;;;;;;;;;;5095997;28;20498;-66
2021/08/26 10:13:36;;;;;;;19.60;3.47;;;;;;;;;;5100568;28;20106;-65
2021/08/26 10:16:02;;;;;;;17.42;3.40;;;;;;;;;;5103105;28;20008;-66
2021/08/26 10:18:29;;;;;;;14.43;3.20;;;;;;;;;;5101776;28;20031;-66
2021/08/26 10:20:58;;;;;;;9.32;2.95;;;;;;;;;;5110806;28;20394;-65
2021/08/26 10:23:25;;;;;;;10.48;2.20;;;;;;;;;;5107038;28;20012;-66
2021/08/26 10:25:52;;;;;;;14.30;2.38;;;;;;;;;;5086623;28;20047;-65
2021/08/26 10:28:19;;;;;;;10.90;1.92;;;;;;;;;;5101467;28;20028;-65
2021/08/26 10:30:45;;;;;;;13.05;2.40;;;;;;;;;;5098165;28;20042;-65
2021/08/26 10:33:13;;;;;;;10.77;2.13;;;;;;;;;;5111155;28;20439;-65
2021/08/26 10:35:55;;;;;;;9.60;2.75;;;;;;;;;;5114481;28;20024;-67
2021/08/26 10:38:31;;;;;;;14.30;3.33;;;;;;;;;;5113827;28;20327;-66
2021/08/26 10:40:58;;;;;;;14.70;3.33;;;;;;;;;;5103871;28;20027;-65
2021/08/26 10:43:34;;;;;;;11.15;3.10;;;;;;;;;;5109959;28;20034;-66
2021/08/26 10:46:01;;;;;;;17.00;3.35;;;;;;;;;;5112928;28;20032;-66
2021/08/26 10:48:27;;;;;;;19.33;3.75;;;;;;;;;;5113471;28;20558;-65
2021/08/26 10:51:07;;;;;;;21.90;3.40;;;;;;;;;;5113664;28;20028;-66
2021/08/26 10:53:34;;;;;;;16.05;4.18;;;;;;;;;;5106824;28;20020;-65
2021/08/26 10:56:29;;;;;;;16.85;4.05;;;;;;;;;;5093283;28;20489;-65
2021/08/26 10:58:56;;;;;;;17.30;4.05;;;;;;;;;;5110162;28;20108;-65
2021/08/26 11:01:28;;;;;;;16.80;4.20;;;;;;;;;;5113739;28;20504;-66
2021/08/26 11:03:56;;;;;;;21.63;6.88;;;;;;;;;;5110731;28;20508;-66
2021/08/26 11:06:27;;;;;;;18.30;5.88;;;;;;;;;;5112403;28;20027;-66
2021/08/26 11:08:58;;;;;;;21.65;5.80;;;;;;;;;;5113335;28;20054;-66
2021/08/26 11:11:24;;;;;;;15.90;4.43;;;;;;;;;;5114006;28;20020;-65
2021/08/26 11:13:51;;;;;;;12.90;4.40;;;;;;;;;;5110118;28;20042;-66
2021/08/26 11:16:23;;;;;;;17.35;4.25;;;;;;;;;;5113247;28;20024;-67
2021/08/26 11:19:09;;;;;;;19.08;5.15;;;;;;;;;;5110451;28;20020;-66
2021/08/26 11:24:28;;;;;;;21.15;4.63;;;;;;;;;;5102481;28;20494;-65
2021/08/26 11:26:58;;;;;;;16.70;4.53;;;;;;;;;;5072821;28;20035;-65
2021/08/26 11:29:24;;;;;;;15.35;4.65;;;;;;;;;;5093187;28;20027;-65
2021/08/26 11:31:57;;;;;;;19.48;4.32;;;;;;;;;;5109883;28;20404;-65
2021/08/26 11:34:28;;;;;;;21.70;4.80;;;;;;;;;;5107925;28;20030;-66
2021/08/26 11:36:58;;;;;;;18.27;5.93;;;;;;;;;;5112256;28;20477;-65
2021/08/26 11:39:24;;;;;;;19.00;5.93;;;;;;;;;;5111291;28;20046;-65
2021/08/26 11:41:51;;;;;;;20.63;5.88;;;;;;;;;;5092011;28;20048;-65
2021/08/26 11:44:17;;;;;;;16.25;5.22;;;;;;;;;;5107703;28;20030;-65
2021/08/26 11:46:43;;;;;;;17.73;5.22;;;;;;;;;;5108952;28;20427;-65
2021/08/26 11:49:09;;;;;;;17.88;5.78;;;;;;;;;;5110615;28;20055;-67
2021/08/26 11:51:36;;;;;;;21.42;6.00;;;;;;;;;;5110461;28;20069;-66
2021/08/26 11:54:11;;;;;;;18.58;6.10;;;;;;;;;;5103790;28;20114;-65
2021/08/26 11:56:51;;;;;;;21.08;5.22;;;;;;;;;;5109385;28;20046;-65
2021/08/26 11:59:27;;;;;;;19.02;5.70;;;;;;;;;;5086533;28;20054;-65
2021/08/26 12:02:12;;;;;;;23.95;5.50;;;;;;;;;;5108640;28;20502;-65
2021/08/26 12:04:38;;;;;;;23.33;5.28;;;;;;;;;;5100692;28;20027;-64
2021/08/26 12:07:04;;;;;;;26.35;5.80;;;;;;;;;;5106174;28;20112;-67
2021/08/26 12:09:30;;;;;;;23.45;6.55;;;;;;;;;;5080393;28;20432;-66
2021/08/26 12:11:56;;;;;;;11.48;4.93;;;;;;;;;;5100086;28;20040;-66
2021/08/26 12:14:22;;;;;;;18.20;4.00;;;;;;;;;;5106031;28;20379;-65
2021/08/26 12:16:49;;;;;;;16.08;4.13;;;;;;;;;;5108515;28;20493;-65
2021/08/26 12:19:15;;;;;;;18.20;4.32;;;;;;;;;;5109603;28;20404;-65
2021/08/26 12:21:41;;;;;;;15.23;4.97;;;;;;;;;;5093117;28;20028;-65
2021/08/26 12:24:09;;;;;;;19.25;4.65;;;;;;;;;;5108904;28;20012;-64
2021/08/26 12:26:39;;;;;;;17.17;4.25;;;;;;;;;;5102394;28;20020;-64
2021/08/26 12:29:05;;;;;;;15.05;3.97;;;;;;;;;;5105897;28;20024;-64
2021/08/26 12:31:36;;;;;;;19.58;5.15;;;;;;;;;;5108619;28;20505;-64
2021/08/26 12:34:02;;;;;;;19.77;5.38;;;;;;;;;;5098574;28;20035;-65
2021/08/26 12:36:29;;;;;;;19.70;5.75;;;;;;;;;;5111651;28;20500;-66
2021/08/26 12:38:55;;;;;;;29.23;5.88;;;;;;;;;;5111334;28;20023;-66
2021/08/26 12:41:25;;;;;;;25.02;6.22;;;;;;;;;;5110683;28;20076;-67
2021/08/26 12:43:53;;;;;;;28.60;6.95;;;;;;;;;;5106122;28;20112;-65
2021/08/26 12:46:23;;;;;;;26.65;6.65;;;;;;;;;;5105206;28;20032;-65
2021/08/26 12:48:50;;;;;;;27.25;6.50;;;;;;;;;;5109714;28;20040;-66
2021/08/26 12:51:20;;;;;;;34.80;8.02;;;;;;;;;;5109709;28;20024;-66
2021/08/26 12:54:10;;;;;;;28.20;7.68;;;;;;;;;;5107070;27;20034;-65
2021/08/26 12:56:41;;;;;;;24.80;6.25;;;;;;;;;;5099193;28;20035;-66
2021/08/26 12:59:08;;;;;;;23.38;7.15;;;;;;;;;;5110819;28;20019;-66
2021/08/26 13:01:35;;;;;;;25.23;7.57;;;;;;;;;;5110878;28;20042;-67
2021/08/26 13:04:02;;;;;;;22.85;7.60;;;;;;;;;;5105177;28;20088;-66
2021/08/26 13:06:41;;;;;;;24.80;6.60;;;;;;;;;;5092339;28;20050;-66
2021/08/26 13:09:11;;;;;;;21.20;6.10;;;;;;;;;;5092420;28;20442;-66
2021/08/26 13:11:55;;;;;;;15.65;4.82;;;;;;;;;;5111159;28;20473;-65
2021/08/26 13:14:21;;;;;;;24.58;5.82;;;;;;;;;;5107789;28;20478;-66
2021/08/26 13:16:47;;;;;;;22.52;4.60;;;;;;;;;;5111025;28;20024;-66
2021/08/26 13:19:13;;;;;;;20.15;5.80;;;;;;;;;;5111030;28;20401;-65
2021/08/26 13:21:39;;;;;;;26.65;6.90;;;;;;;;;;5111376;28;20485;-66
2021/08/26 13:24:07;;;;;;;25.15;6.03;;;;;;;;;;5086972;28;20055;-67
2021/08/26 13:26:33;;;;;;;26.10;6.53;;;;;;;;;;5091741;28;20031;-66
2021/08/26 13:28:59;;;;;;;21.05;4.93;;;;;;;;;;5109692;28;20127;-67
2021/08/26 13:31:26;;;;;;;29.58;6.20;;;;;;;;;;5110232;28;20022;-66
2021/08/26 13:33:52;;;;;;;23.50;6.88;;;;;;;;;;5089434;28;20024;-66
2021/08/26 13:36:18;;;;;;;28.48;5.40;;;;;;;;;;5111057;28;20509;-66
2021/08/26 13:38:44;;;;;;;25.90;6.80;;;;;;;;;;5092102;28;20063;-66
2021/08/26 13:41:11;;;;;;;28.25;6.65;;;;;;;;;;5110344;28;20031;-66
2021/08/26 13:43:37;;;;;;;28.20;6.70;;;;;;;;;;5107177;28;20032;-66
2021/08/26 13:46:04;;;;;;;23.40;5.82;;;;;;;;;;5109617;28;20122;-66
2021/08/26 13:48:30;;;;;;;28.42;6.93;;;;;;;;;;5110193;28;20032;-66
2021/08/26 13:50:56;;;;;;;27.45;6.55;;;;;;;;;;5110089;28;20024;-66
2021/08/26 13:53:22;;;;;;;27.75;6.25;;;;;;;;;;5089343;28;20553;-66
2021/08/26 13:55:48;;;;;;;28.55;7.35;;;;;;;;;;5104355;28;20020;-66
2021/08/26 13:58:14;;;;;;;26.98;5.88;;;;;;;;;;5110128;28;20114;-65
2021/08/26 14:00:40;;;;;;;20.90;5.50;;;;;;;;;;5108336;28;20035;-66
2021/08/26 14:03:06;;;;;;;18.55;5.45;;;;;;;;;;5088459;28;20769;-66
2021/08/26 14:05:33;;;;;;;27.40;6.25;;;;;;;;;;5110232;28;20035;-65
2021/08/26 14:08:00;;;;;;;19.27;5.03;;;;;;;;;;5110278;28;20032;-66
2021/08/26 14:10:27;;;;;;;20.60;5.60;;;;;;;;;;5109645;28;20034;-66
2021/08/26 14:12:53;;;;;;;29.10;7.00;;;;;;;;;;5107642;28;20031;-65
2021/08/26 14:15:19;;;;;;;24.27;5.72;;;;;;;;;;5094407;28;20117;-66
2021/08/26 14:17:45;;;;;;;32.88;7.10;;;;;;;;;;5110257;28;20023;-65
2021/08/26 14:20:12;;;;;;;26.58;7.28;;;;;;;;;;5091256;28;20083;-66
2021/08/26 14:22:38;;;;;;;28.38;7.72;;;;;;;;;;5089331;28;20212;-66
2021/08/26 14:25:05;;;;;;;30.20;6.93;;;;;;;;;;5109768;28;20027;-66
2021/08/26 14:27:31;;;;;;;31.88;7.18;;;;;;;;;;5103480;28;20043;-65
2021/08/26 14:29:58;;;;;;;28.35;7.05;;;;;;;;;;5109600;28;20024;-67
2021/08/26 14:32:24;;;;;;;26.65;7.95;;;;;;;;;;5107611;28;20045;-69
2021/08/26 14:34:54;;;;;;;31.98;7.47;;;;;;;;;;5108606;28;20027;-66
2021/08/26 14:37:20;;;;;;;27.20;6.75;;;;;;;;;;5091113;28;20019;-66
2021/08/26 14:39:46;;;;;;;30.27;7.05;;;;;;;;;;5110170;28;20032;-66